sensor_id;sensor_type;location;lat;lon;timestamp;pressure;altitude;pressure_sealevel;temperature;humidity
12973;BME280;6551;51.056;9.466;2023-09-18T00:01:18;97079.06;;;19.19;92.47
12973;BME280;6551;51.056;9.466;2023-09-18T00:03:46;97081.59;;;19.35;92.11
12973;BME280;6551;51.056;9.466;2023-09-18T00:06:13;97073.31;;;19.26;91.71
12973;BME280;6551;51.056;9.466;2023-09-18T00:08:41;97078.06;;;19.39;91.87
12973;BME280;6551;51.056;9.466;2023-09-18T00:11:10;97063.91;;;19.47;90.94
12973;BME280;6551;51.056;9.466;2023-09-18T00:13:38;97054.22;;;19.46;90.87
12973;BME280;6551;51.056;9.466;2023-09-18T00:16:03;97050.97;;;19.44;90.82
12973;BME280;6551;51.056;9.466;2023-09-18T00:18:29;97048.59;;;19.43;90.50
12973;BME280;6551;51.056;9.466;2023-09-18T00:20:55;97041.31;;;19.38;91.04
12973;BME280;6551;51.056;9.466;2023-09-18T00:23:25;97040.53;;;19.38;91.18
12973;BME280;6551;51.056;9.466;2023-09-18T00:25:51;97043.25;;;19.33;90.86
12973;BME280;6551;51.056;9.466;2023-09-18T00:28:18;97044.94;;;19.28;91.40
12973;BME280;6551;51.056;9.466;2023-09-18T00:30:48;97032.25;;;19.29;91.30
12973;BME280;6551;51.056;9.466;2023-09-18T00:33:15;97036.19;;;19.37;90.96
12973;BME280;6551;51.056;9.466;2023-09-18T00:35:49;97043.41;;;19.46;90.46
12973;BME280;6551;51.056;9.466;2023-09-18T00:38:17;97029.84;;;19.51;89.79
12973;BME280;6551;51.056;9.466;2023-09-18T00:40:44;97024.06;;;19.58;89.58
12973;BME280;6551;51.056;9.466;2023-09-18T00:43:10;97023.47;;;19.61;89.35
12973;BME280;6551;51.056;9.466;2023-09-18T00:45:41;97025.31;;;19.65;88.71
12973;BME280;6551;51.056;9.466;2023-09-18T00:48:15;97017.72;;;19.67;88.54
12973;BME280;6551;51.056;9.466;2023-09-18T00:50:44;97013.63;;;19.70;88.14
12973;BME280;6551;51.056;9.466;2023-09-18T00:53:16;97014.66;;;19.74;88.25
12973;BME280;6551;51.056;9.466;2023-09-18T00:55:43;97010.34;;;19.73;88.52
12973;BME280;6551;51.056;9.466;2023-09-18T00:58:09;97002.66;;;19.80;88.07
12973;BME280;6551;51.056;9.466;2023-09-18T01:00:39;97001.72;;;19.90;87.75
12973;BME280;6551;51.056;9.466;2023-09-18T01:03:06;97001.03;;;19.98;87.60
12973;BME280;6551;51.056;9.466;2023-09-18T01:05:35;96993.56;;;20.08;86.95
12973;BME280;6551;51.056;9.466;2023-09-18T01:08:04;96992.16;;;20.11;86.52
12973;BME280;6551;51.056;9.466;2023-09-18T01:10:43;96987.28;;;20.13;86.64
12973;BME280;6551;51.056;9.466;2023-09-18T01:13:23;96989.47;;;20.11;86.75
12973;BME280;6551;51.056;9.466;2023-09-18T01:16:19;96979.53;;;20.06;86.57
12973;BME280;6551;51.056;9.466;2023-09-18T01:18:52;96977.75;;;20.02;86.52
12973;BME280;6551;51.056;9.466;2023-09-18T01:21:22;96970.00;;;19.95;86.86
12973;BME280;6551;51.056;9.466;2023-09-18T01:23:49;96965.56;;;19.85;87.20
12973;BME280;6551;51.056;9.466;2023-09-18T01:26:16;96966.22;;;19.77;87.70
12973;BME280;6551;51.056;9.466;2023-09-18T01:28:41;96967.19;;;19.68;88.50
12973;BME280;6551;51.056;9.466;2023-09-18T01:31:07;96971.56;;;19.64;88.66
12973;BME280;6551;51.056;9.466;2023-09-18T01:33:34;96970.47;;;19.65;88.99
12973;BME280;6551;51.056;9.466;2023-09-18T01:36:03;96961.78;;;19.68;89.05
12973;BME280;6551;51.056;9.466;2023-09-18T01:38:35;96965.91;;;19.65;89.13
12973;BME280;6551;51.056;9.466;2023-09-18T01:41:04;96970.09;;;19.71;88.90
12973;BME280;6551;51.056;9.466;2023-09-18T01:43:30;96957.41;;;19.72;88.57
12973;BME280;6551;51.056;9.466;2023-09-18T01:45:57;96958.66;;;19.79;88.56
12973;BME280;6551;51.056;9.466;2023-09-18T01:48:24;96960.94;;;19.86;88.21
12973;BME280;6551;51.056;9.466;2023-09-18T01:50:49;96965.19;;;19.92;87.64
12973;BME280;6551;51.056;9.466;2023-09-18T01:53:18;96959.41;;;19.99;87.25
12973;BME280;6551;51.056;9.466;2023-09-18T01:55:45;96966.84;;;20.07;87.06
12973;BME280;6551;51.056;9.466;2023-09-18T01:58:10;96966.44;;;20.13;86.44
12973;BME280;6551;51.056;9.466;2023-09-18T02:00:41;96964.16;;;20.20;85.80
12973;BME280;6551;51.056;9.466;2023-09-18T02:03:08;96963.78;;;20.27;85.86
12973;BME280;6551;51.056;9.466;2023-09-18T02:05:35;96959.50;;;20.26;85.61
12973;BME280;6551;51.056;9.466;2023-09-18T02:08:03;96950.00;;;20.28;85.18
12973;BME280;6551;51.056;9.466;2023-09-18T02:10:29;96954.75;;;20.18;85.51
12973;BME280;6551;51.056;9.466;2023-09-18T02:12:56;96952.69;;;20.28;85.39
12973;BME280;6551;51.056;9.466;2023-09-18T02:15:22;96948.38;;;20.27;85.18
12973;BME280;6551;51.056;9.466;2023-09-18T02:17:49;96941.28;;;20.31;84.83
12973;BME280;6551;51.056;9.466;2023-09-18T02:20:18;96944.81;;;20.32;84.46
12973;BME280;6551;51.056;9.466;2023-09-18T02:22:44;96946.19;;;20.29;84.79
12973;BME280;6551;51.056;9.466;2023-09-18T02:25:13;96933.97;;;20.32;84.61
12973;BME280;6551;51.056;9.466;2023-09-18T02:27:40;96926.59;;;20.37;83.98
12973;BME280;6551;51.056;9.466;2023-09-18T02:30:07;96929.69;;;20.45;83.73
12973;BME280;6551;51.056;9.466;2023-09-18T02:32:34;96932.00;;;20.51;83.83
12973;BME280;6551;51.056;9.466;2023-09-18T02:35:01;96927.09;;;20.53;83.50
12973;BME280;6551;51.056;9.466;2023-09-18T02:37:29;96915.44;;;20.53;83.02
12973;BME280;6551;51.056;9.466;2023-09-18T02:39:55;96919.66;;;20.59;82.85
12973;BME280;6551;51.056;9.466;2023-09-18T02:42:22;96906.34;;;20.62;83.06
12973;BME280;6551;51.056;9.466;2023-09-18T02:44:47;96903.84;;;20.66;82.42
12973;BME280;6551;51.056;9.466;2023-09-18T02:47:13;96900.13;;;20.75;82.01
12973;BME280;6551;51.056;9.466;2023-09-18T02:49:40;96892.09;;;20.84;81.23
12973;BME280;6551;51.056;9.466;2023-09-18T02:52:06;96877.88;;;20.65;81.80
12973;BME280;6551;51.056;9.466;2023-09-18T02:54:31;96874.59;;;20.68;82.27
12973;BME280;6551;51.056;9.466;2023-09-18T02:56:59;96873.97;;;20.84;81.46
12973;BME280;6551;51.056;9.466;2023-09-18T02:59:25;96865.53;;;20.86;81.20
12973;BME280;6551;51.056;9.466;2023-09-18T03:01:51;96858.53;;;20.85;81.61
12973;BME280;6551;51.056;9.466;2023-09-18T03:04:18;96856.09;;;20.83;81.46
12973;BME280;6551;51.056;9.466;2023-09-18T03:06:46;96842.09;;;20.81;81.47
12973;BME280;6551;51.056;9.466;2023-09-18T03:09:11;96850.81;;;20.78;82.41
12973;BME280;6551;51.056;9.466;2023-09-18T03:11:37;96853.03;;;20.76;81.95
12973;BME280;6551;51.056;9.466;2023-09-18T03:14:05;96840.00;;;20.78;82.08
12973;BME280;6551;51.056;9.466;2023-09-18T03:16:31;96835.50;;;20.74;82.36
12973;BME280;6551;51.056;9.466;2023-09-18T03:19:00;96833.69;;;20.69;82.43
12973;BME280;6551;51.056;9.466;2023-09-18T03:21:25;96833.19;;;20.67;82.43
12973;BME280;6551;51.056;9.466;2023-09-18T03:23:51;96835.69;;;20.64;82.98
12973;BME280;6551;51.056;9.466;2023-09-18T03:26:19;96834.59;;;20.65;83.03
12973;BME280;6551;51.056;9.466;2023-09-18T03:28:46;96835.69;;;20.64;83.37
12973;BME280;6551;51.056;9.466;2023-09-18T03:31:13;96841.00;;;20.69;82.67
12973;BME280;6551;51.056;9.466;2023-09-18T03:33:40;96852.81;;;20.73;82.74
12973;BME280;6551;51.056;9.466;2023-09-18T03:36:06;96841.50;;;20.71;82.47
12973;BME280;6551;51.056;9.466;2023-09-18T03:38:37;96853.44;;;20.70;82.69
12973;BME280;6551;51.056;9.466;2023-09-18T03:41:02;96846.22;;;20.65;83.03
12973;BME280;6551;51.056;9.466;2023-09-18T03:43:30;96854.63;;;20.64;83.59
12973;BME280;6551;51.056;9.466;2023-09-18T03:46:03;96903.03;;;20.65;83.12
12973;BME280;6551;51.056;9.466;2023-09-18T03:48:29;96920.47;;;20.73;82.43
12973;BME280;6551;51.056;9.466;2023-09-18T03:50:56;96902.13;;;20.83;81.81
12973;BME280;6551;51.056;9.466;2023-09-18T03:53:23;96899.69;;;20.95;81.42
12973;BME280;6551;51.056;9.466;2023-09-18T03:55:50;96900.19;;;21.11;79.97
12973;BME280;6551;51.056;9.466;2023-09-18T03:58:18;96895.88;;;21.24;79.38
12973;BME280;6551;51.056;9.466;2023-09-18T04:00:44;96883.78;;;21.30;78.79
12973;BME280;6551;51.056;9.466;2023-09-18T04:03:11;96885.28;;;21.36;78.77
12973;BME280;6551;51.056;9.466;2023-09-18T04:05:37;96878.75;;;21.37;79.18
12973;BME280;6551;51.056;9.466;2023-09-18T04:08:06;96878.75;;;21.37;78.49
12973;BME280;6551;51.056;9.466;2023-09-18T04:10:31;96871.03;;;21.30;79.20
12973;BME280;6551;51.056;9.466;2023-09-18T04:12:59;96868.66;;;21.29;79.22
12973;BME280;6551;51.056;9.466;2023-09-18T04:15:25;96870.56;;;21.28;78.87
12973;BME280;6551;51.056;9.466;2023-09-18T04:17:52;96842.19;;;21.26;79.55
12973;BME280;6551;51.056;9.466;2023-09-18T04:20:19;96828.66;;;21.26;79.23
12973;BME280;6551;51.056;9.466;2023-09-18T04:22:47;96828.16;;;21.24;79.25
12973;BME280;6551;51.056;9.466;2023-09-18T04:25:17;96822.75;;;21.24;79.50
12973;BME280;6551;51.056;9.466;2023-09-18T04:27:45;96819.53;;;21.22;78.82
12973;BME280;6551;51.056;9.466;2023-09-18T04:30:11;96814.91;;;21.22;78.81
12973;BME280;6551;51.056;9.466;2023-09-18T04:32:37;96805.69;;;21.23;79.45
12973;BME280;6551;51.056;9.466;2023-09-18T04:35:05;96807.03;;;21.12;79.25
12973;BME280;6551;51.056;9.466;2023-09-18T04:37:36;96797.31;;;21.11;79.16
12973;BME280;6551;51.056;9.466;2023-09-18T04:40:06;96795.72;;;21.10;79.20
12973;BME280;6551;51.056;9.466;2023-09-18T04:42:36;96790.59;;;21.09;79.77
12973;BME280;6551;51.056;9.466;2023-09-18T04:45:05;96784.38;;;21.08;79.37
12973;BME280;6551;51.056;9.466;2023-09-18T04:47:31;96779.06;;;21.03;79.65
12973;BME280;6551;51.056;9.466;2023-09-18T04:49:56;96784.47;;;21.03;79.96
12973;BME280;6551;51.056;9.466;2023-09-18T04:52:25;96767.44;;;21.02;80.00
12973;BME280;6551;51.056;9.466;2023-09-18T04:54:52;96766.63;;;21.02;79.82
12973;BME280;6551;51.056;9.466;2023-09-18T04:57:20;96765.34;;;20.99;80.14
12973;BME280;6551;51.056;9.466;2023-09-18T04:59:49;96773.44;;;20.99;80.52
12973;BME280;6551;51.056;9.466;2023-09-18T05:02:14;96764.84;;;20.97;80.52
12973;BME280;6551;51.056;9.466;2023-09-18T05:04:42;96762.13;;;20.97;80.18
12973;BME280;6551;51.056;9.466;2023-09-18T05:07:08;96761.03;;;20.98;80.42
12973;BME280;6551;51.056;9.466;2023-09-18T05:09:34;96763.44;;;21.00;79.58
12973;BME280;6551;51.056;9.466;2023-09-18T05:12:04;96758.03;;;21.00;79.83
12973;BME280;6551;51.056;9.466;2023-09-18T05:14:31;96765.84;;;21.02;79.67
12973;BME280;6551;51.056;9.466;2023-09-18T05:16:56;96763.91;;;21.02;79.48
12973;BME280;6551;51.056;9.466;2023-09-18T05:19:25;96760.81;;;21.09;78.96
12973;BME280;6551;51.056;9.466;2023-09-18T05:21:53;96756.41;;;21.13;79.13
12973;BME280;6551;51.056;9.466;2023-09-18T05:24:18;96750.53;;;21.19;78.60
12973;BME280;6551;51.056;9.466;2023-09-18T05:26:53;96742.59;;;21.23;78.36
12973;BME280;6551;51.056;9.466;2023-09-18T05:29:20;96738.97;;;21.27;78.28
12973;BME280;6551;51.056;9.466;2023-09-18T05:31:48;96740.09;;;21.26;78.47
12973;BME280;6551;51.056;9.466;2023-09-18T05:34:15;96739.63;;;21.33;78.13
12973;BME280;6551;51.056;9.466;2023-09-18T05:36:42;96735.69;;;21.39;77.81
12973;BME280;6551;51.056;9.466;2023-09-18T05:39:09;96738.47;;;21.25;78.39
12973;BME280;6551;51.056;9.466;2023-09-18T05:41:38;96733.72;;;21.31;77.53
12973;BME280;6551;51.056;9.466;2023-09-18T05:44:05;96725.78;;;21.34;77.37
12973;BME280;6551;51.056;9.466;2023-09-18T05:46:36;96720.13;;;21.22;77.29
12973;BME280;6551;51.056;9.466;2023-09-18T05:49:03;96715.78;;;21.13;77.98
12973;BME280;6551;51.056;9.466;2023-09-18T05:51:31;96722.03;;;21.22;77.80
12973;BME280;6551;51.056;9.466;2023-09-18T05:53:58;96713.56;;;21.15;77.96
12973;BME280;6551;51.056;9.466;2023-09-18T05:56:28;96715.66;;;21.18;77.70
12973;BME280;6551;51.056;9.466;2023-09-18T05:58:54;96700.13;;;21.32;77.46
12973;BME280;6551;51.056;9.466;2023-09-18T06:01:22;96710.16;;;21.31;77.10
12973;BME280;6551;51.056;9.466;2023-09-18T06:03:49;96692.56;;;21.51;76.37
12973;BME280;6551;51.056;9.466;2023-09-18T06:06:16;96689.28;;;21.63;75.29
12973;BME280;6551;51.056;9.466;2023-09-18T06:08:42;96681.56;;;21.47;75.96
12973;BME280;6551;51.056;9.466;2023-09-18T06:11:09;96688.00;;;21.69;75.38
12973;BME280;6551;51.056;9.466;2023-09-18T06:13:38;96694.41;;;21.73;76.21
12973;BME280;6551;51.056;9.466;2023-09-18T06:16:05;96696.16;;;21.77;75.92
12973;BME280;6551;51.056;9.466;2023-09-18T06:18:34;96694.09;;;21.74;76.06
12973;BME280;6551;51.056;9.466;2023-09-18T06:21:02;96701.59;;;21.77;75.53
12973;BME280;6551;51.056;9.466;2023-09-18T06:23:27;96700.81;;;21.77;76.19
12973;BME280;6551;51.056;9.466;2023-09-18T06:25:57;96716.28;;;21.76;76.14
12973;BME280;6551;51.056;9.466;2023-09-18T06:28:26;96714.03;;;21.78;76.19
12973;BME280;6551;51.056;9.466;2023-09-18T06:30:53;96714.84;;;21.79;75.85
12973;BME280;6551;51.056;9.466;2023-09-18T06:33:22;96725.97;;;21.77;75.46
12973;BME280;6551;51.056;9.466;2023-09-18T06:35:48;96725.44;;;21.89;74.13
12973;BME280;6551;51.056;9.466;2023-09-18T06:38:15;96724.38;;;22.07;72.00
12973;BME280;6551;51.056;9.466;2023-09-18T06:40:41;96730.81;;;22.28;70.55
12973;BME280;6551;51.056;9.466;2023-09-18T06:43:09;96731.75;;;22.41;70.55
12973;BME280;6551;51.056;9.466;2023-09-18T06:45:36;96731.78;;;22.49;70.12
12973;BME280;6551;51.056;9.466;2023-09-18T06:48:04;96727.50;;;22.57;70.08
12973;BME280;6551;51.056;9.466;2023-09-18T06:50:30;96730.69;;;22.59;69.34
12973;BME280;6551;51.056;9.466;2023-09-18T06:52:56;96732.78;;;22.62;69.24
12973;BME280;6551;51.056;9.466;2023-09-18T06:55:23;96744.28;;;22.67;69.52
12973;BME280;6551;51.056;9.466;2023-09-18T06:57:51;96738.72;;;22.73;69.00
12973;BME280;6551;51.056;9.466;2023-09-18T07:00:19;96728.16;;;22.62;69.50
12973;BME280;6551;51.056;9.466;2023-09-18T07:02:48;96722.88;;;22.66;69.35
12973;BME280;6551;51.056;9.466;2023-09-18T07:05:15;96732.31;;;22.68;70.14
12973;BME280;6551;51.056;9.466;2023-09-18T07:07:42;96731.84;;;22.66;69.81
12973;BME280;6551;51.056;9.466;2023-09-18T07:10:11;96739.34;;;22.69;70.18
12973;BME280;6551;51.056;9.466;2023-09-18T07:12:37;96743.97;;;22.69;70.46
12973;BME280;6551;51.056;9.466;2023-09-18T07:15:06;96730.06;;;22.62;70.18
12973;BME280;6551;51.056;9.466;2023-09-18T07:17:33;96747.28;;;22.57;71.19
12973;BME280;6551;51.056;9.466;2023-09-18T07:20:02;96745.22;;;22.54;71.13
12973;BME280;6551;51.056;9.466;2023-09-18T07:22:44;96743.44;;;22.50;70.92
12973;BME280;6551;51.056;9.466;2023-09-18T07:25:12;96739.16;;;22.49;71.22
12973;BME280;6551;51.056;9.466;2023-09-18T07:27:38;96744.84;;;22.39;72.00
12973;BME280;6551;51.056;9.466;2023-09-18T07:30:07;96741.03;;;22.40;71.72
12973;BME280;6551;51.056;9.466;2023-09-18T07:32:34;96734.47;;;22.41;71.68
12973;BME280;6551;51.056;9.466;2023-09-18T07:35:00;96730.66;;;22.42;72.20
12973;BME280;6551;51.056;9.466;2023-09-18T07:37:26;96728.75;;;22.34;72.09
12973;BME280;6551;51.056;9.466;2023-09-18T07:39:54;96727.00;;;22.38;72.37
12973;BME280;6551;51.056;9.466;2023-09-18T07:42:25;96719.81;;;22.42;72.69
12973;BME280;6551;51.056;9.466;2023-09-18T07:44:52;96730.16;;;22.23;72.95
12973;BME280;6551;51.056;9.466;2023-09-18T07:47:20;96736.25;;;22.37;71.99
12973;BME280;6551;51.056;9.466;2023-09-18T07:49:47;96738.16;;;22.45;71.20
12973;BME280;6551;51.056;9.466;2023-09-18T07:52:16;96741.19;;;22.52;71.04
12973;BME280;6551;51.056;9.466;2023-09-18T07:54:45;96751.94;;;22.57;69.98
12973;BME280;6551;51.056;9.466;2023-09-18T07:57:12;96756.56;;;22.56;70.29
12973;BME280;6551;51.056;9.466;2023-09-18T07:59:39;96765.03;;;22.63;69.89
12973;BME280;6551;51.056;9.466;2023-09-18T08:02:07;96777.13;;;22.57;69.81
12973;BME280;6551;51.056;9.466;2023-09-18T08:04:38;96774.16;;;22.67;69.25
12973;BME280;6551;51.056;9.466;2023-09-18T08:07:05;96773.53;;;22.70;68.90
12973;BME280;6551;51.056;9.466;2023-09-18T08:09:35;96773.69;;;22.65;69.29
12973;BME280;6551;51.056;9.466;2023-09-18T08:12:07;96777.50;;;22.64;69.03
12973;BME280;6551;51.056;9.466;2023-09-18T08:14:35;96783.53;;;22.61;69.32
12973;BME280;6551;51.056;9.466;2023-09-18T08:17:04;96791.19;;;22.59;69.48
12973;BME280;6551;51.056;9.466;2023-09-18T08:19:34;96782.06;;;22.55;69.25
12973;BME280;6551;51.056;9.466;2023-09-18T08:22:04;96802.34;;;22.58;69.70
12973;BME280;6551;51.056;9.466;2023-09-18T08:24:32;96805.41;;;22.56;70.10
12973;BME280;6551;51.056;9.466;2023-09-18T08:26:59;96814.13;;;22.36;71.26
12973;BME280;6551;51.056;9.466;2023-09-18T08:29:25;96833.53;;;22.30;71.37
12973;BME280;6551;51.056;9.466;2023-09-18T08:31:52;96821.59;;;22.31;71.58
12973;BME280;6551;51.056;9.466;2023-09-18T08:34:17;96841.94;;;22.11;72.88
12973;BME280;6551;51.056;9.466;2023-09-18T08:36:44;96841.97;;;22.20;72.52
12973;BME280;6551;51.056;9.466;2023-09-18T08:39:11;96838.97;;;22.21;72.57
12973;BME280;6551;51.056;9.466;2023-09-18T08:41:43;96840.25;;;22.24;73.07
12973;BME280;6551;51.056;9.466;2023-09-18T08:44:10;96854.59;;;22.24;73.33
12973;BME280;6551;51.056;9.466;2023-09-18T08:46:42;96848.78;;;22.08;73.51
12973;BME280;6551;51.056;9.466;2023-09-18T08:49:09;96836.44;;;21.94;73.74
12973;BME280;6551;51.056;9.466;2023-09-18T08:51:38;96830.72;;;21.95;73.80
12973;BME280;6551;51.056;9.466;2023-09-18T08:54:05;96851.59;;;21.95;74.11
12973;BME280;6551;51.056;9.466;2023-09-18T08:56:32;96830.38;;;21.97;74.35
12973;BME280;6551;51.056;9.466;2023-09-18T08:59:01;96842.22;;;22.01;74.38
12973;BME280;6551;51.056;9.466;2023-09-18T09:01:28;96843.31;;;22.00;74.29
12973;BME280;6551;51.056;9.466;2023-09-18T09:03:58;96845.47;;;22.11;74.15
12973;BME280;6551;51.056;9.466;2023-09-18T09:06:26;96837.66;;;22.19;73.81
12973;BME280;6551;51.056;9.466;2023-09-18T09:08:53;96842.31;;;22.18;73.98
12973;BME280;6551;51.056;9.466;2023-09-18T09:11:20;96843.44;;;22.26;73.86
12973;BME280;6551;51.056;9.466;2023-09-18T09:13:47;96852.72;;;22.33;73.42
12973;BME280;6551;51.056;9.466;2023-09-18T09:16:17;96839.63;;;22.35;73.63
12973;BME280;6551;51.056;9.466;2023-09-18T09:18:50;96832.34;;;22.53;73.25
12973;BME280;6551;51.056;9.466;2023-09-18T09:21:16;96852.06;;;22.28;73.46
12973;BME280;6551;51.056;9.466;2023-09-18T09:23:52;96839.41;;;22.14;74.34
12973;BME280;6551;51.056;9.466;2023-09-18T09:26:21;96844.69;;;22.20;75.08
12973;BME280;6551;51.056;9.466;2023-09-18T09:28:49;96846.28;;;22.21;74.84
12973;BME280;6551;51.056;9.466;2023-09-18T09:31:30;96851.69;;;22.12;74.92
12973;BME280;6551;51.056;9.466;2023-09-18T09:33:56;96848.56;;;21.96;74.95
12973;BME280;6551;51.056;9.466;2023-09-18T09:36:26;96860.81;;;21.94;75.20
12973;BME280;6551;51.056;9.466;2023-09-18T09:38:57;96851.44;;;22.00;75.97
12973;BME280;6551;51.056;9.466;2023-09-18T09:41:31;96841.47;;;22.09;75.73
12973;BME280;6551;51.056;9.466;2023-09-18T09:43:58;96837.94;;;22.08;76.02
12973;BME280;6551;51.056;9.466;2023-09-18T09:46:28;96832.78;;;22.29;74.60
12973;BME280;6551;51.056;9.466;2023-09-18T09:49:06;96825.56;;;22.25;74.80
12973;BME280;6551;51.056;9.466;2023-09-18T09:51:34;96824.28;;;22.22;74.41
12973;BME280;6551;51.056;9.466;2023-09-18T09:54:02;96831.13;;;22.20;74.95
12973;BME280;6551;51.056;9.466;2023-09-18T09:56:50;96814.38;;;22.18;74.53
12973;BME280;6551;51.056;9.466;2023-09-18T09:59:20;96826.28;;;22.08;75.04
12973;BME280;6551;51.056;9.466;2023-09-18T10:01:49;96809.22;;;21.99;75.21
12973;BME280;6551;51.056;9.466;2023-09-18T10:04:18;96816.25;;;22.08;74.88
12973;BME280;6551;51.056;9.466;2023-09-18T10:07:08;96820.28;;;22.20;74.46
12973;BME280;6551;51.056;9.466;2023-09-18T10:09:41;96827.47;;;22.16;74.72
12973;BME280;6551;51.056;9.466;2023-09-18T10:12:15;96822.38;;;22.23;74.68
12973;BME280;6551;51.056;9.466;2023-09-18T10:14:48;96835.19;;;22.39;75.20
12973;BME280;6551;51.056;9.466;2023-09-18T10:17:19;96853.41;;;22.47;74.58
12973;BME280;6551;51.056;9.466;2023-09-18T10:20:08;96837.47;;;22.46;74.38
12973;BME280;6551;51.056;9.466;2023-09-18T10:23:02;96862.66;;;22.38;75.39
12973;BME280;6551;51.056;9.466;2023-09-18T10:25:31;96856.44;;;22.46;75.00
12973;BME280;6551;51.056;9.466;2023-09-18T10:28:00;96862.81;;;22.50;74.71
12973;BME280;6551;51.056;9.466;2023-09-18T10:30:30;96858.69;;;22.52;74.92
12973;BME280;6551;51.056;9.466;2023-09-18T10:33:00;96858.69;;;22.52;74.80
12973;BME280;6551;51.056;9.466;2023-09-18T10:35:27;96866.38;;;22.59;74.67
12973;BME280;6551;51.056;9.466;2023-09-18T10:37:54;96877.00;;;22.38;74.70
12973;BME280;6551;51.056;9.466;2023-09-18T10:40:23;96876.63;;;22.23;75.36
12973;BME280;6551;51.056;9.466;2023-09-18T10:42:54;96876.94;;;22.30;75.38
12973;BME280;6551;51.056;9.466;2023-09-18T10:45:23;96875.50;;;22.24;75.64
12973;BME280;6551;51.056;9.466;2023-09-18T10:47:51;96875.94;;;22.17;76.88
12973;BME280;6551;51.056;9.466;2023-09-18T10:50:26;96887.94;;;22.25;76.34
12973;BME280;6551;51.056;9.466;2023-09-18T10:52:53;96877.28;;;22.28;76.48
12973;BME280;6551;51.056;9.466;2023-09-18T10:55:21;96871.22;;;22.31;76.15
12973;BME280;6551;51.056;9.466;2023-09-18T11:00:24;96867.41;;;22.32;76.84
12973;BME280;6551;51.056;9.466;2023-09-18T11:02:52;96865.75;;;22.23;77.68
12973;BME280;6551;51.056;9.466;2023-09-18T11:05:32;96866.53;;;22.14;77.66
12973;BME280;6551;51.056;9.466;2023-09-18T11:08:29;96865.75;;;22.23;77.67
12973;BME280;6551;51.056;9.466;2023-09-18T11:11:03;96858.81;;;22.39;77.67
12973;BME280;6551;51.056;9.466;2023-09-18T11:13:50;96868.72;;;22.52;77.28
12973;BME280;6551;51.056;9.466;2023-09-18T11:16:35;96859.53;;;22.61;77.11
12973;BME280;6551;51.056;9.466;2023-09-18T11:19:18;96870.09;;;22.71;76.41
12973;BME280;6551;51.056;9.466;2023-09-18T11:21:45;96868.84;;;22.78;76.27
12973;BME280;6551;51.056;9.466;2023-09-18T11:24:20;96876.66;;;22.70;76.36
12973;BME280;6551;51.056;9.466;2023-09-18T11:26:50;96880.00;;;22.67;76.20
12973;BME280;6551;51.056;9.466;2023-09-18T11:29:22;96887.09;;;22.55;76.82
12973;BME280;6551;51.056;9.466;2023-09-18T11:31:56;96880.66;;;22.34;78.10
12973;BME280;6551;51.056;9.466;2023-09-18T11:34:30;96869.00;;;22.33;77.64
12973;BME280;6551;51.056;9.466;2023-09-18T11:37:21;96877.56;;;22.18;78.23
12973;BME280;6551;51.056;9.466;2023-09-18T11:39:50;96884.09;;;22.17;78.63
12973;BME280;6551;51.056;9.466;2023-09-18T11:42:20;96878.47;;;22.13;78.32
12973;BME280;6551;51.056;9.466;2023-09-18T11:44:49;96883.38;;;22.03;78.98
12973;BME280;6551;51.056;9.466;2023-09-18T11:47:18;96892.94;;;22.00;79.00
12973;BME280;6551;51.056;9.466;2023-09-18T11:49:59;96893.41;;;22.02;78.97
12973;BME280;6551;51.056;9.466;2023-09-18T11:52:28;96891.88;;;22.10;79.03
12973;BME280;6551;51.056;9.466;2023-09-18T11:55:00;96892.53;;;22.16;78.46
12973;BME280;6551;51.056;9.466;2023-09-18T11:57:26;96893.88;;;22.27;77.39
12973;BME280;6551;51.056;9.466;2023-09-18T11:59:57;96886.56;;;22.36;77.00
12973;BME280;6551;51.056;9.466;2023-09-18T12:02:38;96892.34;;;22.43;76.25
12973;BME280;6551;51.056;9.466;2023-09-18T12:05:14;96887.84;;;22.38;75.07
12973;BME280;6551;51.056;9.466;2023-09-18T12:07:45;96888.19;;;22.45;74.83
12973;BME280;6551;51.056;9.466;2023-09-18T12:10:15;96886.13;;;22.42;73.64
12973;BME280;6551;51.056;9.466;2023-09-18T12:12:47;96884.34;;;22.46;74.26
12973;BME280;6551;51.056;9.466;2023-09-18T12:15:18;96878.16;;;22.46;74.08
12973;BME280;6551;51.056;9.466;2023-09-18T12:17:48;96880.53;;;22.47;73.80
12973;BME280;6551;51.056;9.466;2023-09-18T12:20:19;96880.72;;;22.51;73.86
12973;BME280;6551;51.056;9.466;2023-09-18T12:22:50;96877.38;;;22.54;73.91
12973;BME280;6551;51.056;9.466;2023-09-18T12:25:17;96874.34;;;22.55;73.29
12973;BME280;6551;51.056;9.466;2023-09-18T12:28:02;96875.16;;;22.56;73.66
12973;BME280;6551;51.056;9.466;2023-09-18T12:30:30;96877.69;;;22.52;74.05
12973;BME280;6551;51.056;9.466;2023-09-18T12:32:58;96879.25;;;22.45;74.40
12973;BME280;6551;51.056;9.466;2023-09-18T12:35:30;96866.34;;;22.50;73.99
12973;BME280;6551;51.056;9.466;2023-09-18T12:37:58;96864.47;;;22.59;73.88
12973;BME280;6551;51.056;9.466;2023-09-18T12:40:33;96879.94;;;22.59;73.52
12973;BME280;6551;51.056;9.466;2023-09-18T12:42:59;96888.53;;;22.52;73.73
12973;BME280;6551;51.056;9.466;2023-09-18T12:45:27;96881.28;;;22.31;74.38
12973;BME280;6551;51.056;9.466;2023-09-18T12:47:58;96877.09;;;22.25;75.11
12973;BME280;6551;51.056;9.466;2023-09-18T12:50:25;96857.59;;;22.14;75.35
12973;BME280;6551;51.056;9.466;2023-09-18T12:52:51;96868.53;;;22.00;75.77
12973;BME280;6551;51.056;9.466;2023-09-18T12:55:26;96885.78;;;22.04;75.60
12973;BME280;6551;51.056;9.466;2023-09-18T12:57:54;96885.78;;;22.04;76.00
12973;BME280;6551;51.056;9.466;2023-09-18T13:00:22;96898.34;;;22.00;75.96
12973;BME280;6551;51.056;9.466;2023-09-18T13:02:50;96898.53;;;22.04;76.12
12973;BME280;6551;51.056;9.466;2023-09-18T13:05:24;96888.88;;;21.89;77.14
12973;BME280;6551;51.056;9.466;2023-09-18T13:07:55;96886.84;;;21.95;77.65
12973;BME280;6551;51.056;9.466;2023-09-18T13:10:25;96887.63;;;21.95;77.52
12973;BME280;6551;51.056;9.466;2023-09-18T13:12:54;96886.22;;;21.98;77.81
12973;BME280;6551;51.056;9.466;2023-09-18T13:15:32;96891.31;;;21.99;77.86
12973;BME280;6551;51.056;9.466;2023-09-18T13:18:10;96889.41;;;22.00;78.19
12973;BME280;6551;51.056;9.466;2023-09-18T13:20:38;96882.69;;;21.97;78.13
12973;BME280;6551;51.056;9.466;2023-09-18T13:23:07;96883.03;;;21.96;78.66